Time;durP1;ratioP1;P1;durP2;ratioP2;P2;SDS_P1;SDS_P2;PMS_P1;PMS_P2;Temp;Humidity;BMP_temperature;BMP_pressure;BME280_temperature;BME280_humidity;BME280_pressure;Samples;Min_cycle;Max_cycle;Signal;HPM_P1;HPM_P2
2021/09/30 00:00:35;;;;;;;20.65;14.45;;;;;;;8.10;65.11;100999.70;1766174;79;21005;-37
2021/09/30 00:03:05;;;;;;;22.45;15.65;;;;;;;8.07;65.11;100996.81;1765636;80;21008;-37
2021/09/30 00:05:31;;;;;;;18.50;13.68;;;;;;;8.03;65.15;100995.28;1765749;80;21520;-37
2021/09/30 00:07:59;;;;;;;22.37;15.70;;;;;;;8.02;65.18;101003.13;1765710;80;21532;-37
2021/09/30 00:10:26;;;;;;;18.10;13.65;;;;;;;7.98;65.22;101004.84;1785402;79;20910;-37
2021/09/30 00:12:59;;;;;;;19.25;12.95;;;;;;;7.99;65.08;101007.77;1787776;78;21044;-37
2021/09/30 00:15:33;;;;;;;19.37;14.30;;;;;;;8.05;64.79;101005.76;1824575;78;21515;-37
2021/09/30 00:18:19;;;;;;;18.90;14.03;;;;;;;8.05;64.79;101005.76;1748018;81;21532;-37
2021/09/30 00:34:21;;;;;;;21.57;15.20;;;;;;;7.86;65.35;101001.28;1815545;78;21801;-37
2021/09/30 00:42:10;;;;;;;18.02;13.48;;;;;;;7.83;65.56;101000.55;1778223;78;23340;-37
2021/09/30 01:25:20;;;;;;;19.52;13.68;;;;;;;7.51;65.61;101005.22;1760171;81;20919;-37
2021/09/30 01:52:10;;;;;;;21.15;13.70;;;;;;;7.47;65.10;100998.81;1765753;80;20965;-36
2021/09/30 02:23:28;;;;;;;19.02;13.88;;;;;;;7.17;65.20;101007.71;1753553;81;21017;-36
2021/09/30 02:58:47;;;;;;;16.70;12.85;;;;;;;7.06;65.00;100999.56;1755954;80;20996;-36
2021/09/30 03:00:45;;;;;;;19.95;14.07;;;;;;;7.04;64.83;100997.70;1742767;81;21028;-36
2021/09/30 03:03:12;;;;;;;18.10;13.50;;;;;;;7.01;64.88;100997.50;1755885;81;20981;-36
2021/09/30 03:05:40;;;;;;;22.13;14.45;;;;;;;6.98;64.94;101000.22;1755594;80;21127;-36
2021/09/30 03:08:07;;;;;;;17.70;14.30;;;;;;;6.94;64.90;100999.22;1756050;80;21088;-36
2021/09/30 03:10:33;;;;;;;17.40;13.48;;;;;;;6.89;64.93;100998.75;1755829;81;21484;-36
2021/09/30 03:13:00;;;;;;;18.92;13.18;;;;;;;6.86;64.88;101001.24;1780190;80;21621;-36
2021/09/30 03:15:37;;;;;;;16.62;13.22;;;;;;;6.84;64.96;101006.92;1781114;80;21015;-36
2021/09/30 03:20:43;;;;;;;18.25;14.00;;;;;;;6.85;65.02;101005.03;1755746;81;20990;-36
2021/09/30 03:23:21;;;;;;;19.37;13.28;;;;;;;6.84;65.08;101004.77;1756441;80;20968;-36
2021/09/30 03:25:50;;;;;;;16.80;13.25;;;;;;;6.83;64.96;101001.81;1755885;80;20925;-36
2021/09/30 03:28:21;;;;;;;17.65;13.75;;;;;;;6.82;64.91;101004.28;1755946;81;21033;-36
2021/09/30 03:30:50;;;;;;;17.07;13.65;;;;;;;6.83;64.82;101007.20;1755844;81;21134;-36
2021/09/30 03:33:17;;;;;;;18.98;13.80;;;;;;;6.78;64.84;101001.34;1762991;80;20910;-36
2021/09/30 03:35:51;;;;;;;17.67;13.80;;;;;;;6.78;64.80;101004.59;1775648;80;20941;-36
2021/09/30 03:38:20;;;;;;;16.10;12.53;;;;;;;6.73;64.76;101002.78;1785634;80;21473;-36
2021/09/30 03:40:47;;;;;;;15.55;12.33;;;;;;;6.74;64.75;101006.27;1782397;80;21548;-36
2021/09/30 03:43:13;;;;;;;18.73;12.75;;;;;;;6.79;64.72;101008.89;1756257;80;21079;-36
2021/09/30 03:45:40;;;;;;;17.80;13.25;;;;;;;6.82;64.62;101005.63;1773377;80;20992;-36
2021/09/30 03:48:12;;;;;;;16.75;12.68;;;;;;;6.84;64.60;101006.92;1758174;80;20957;-36
2021/09/30 03:53:26;;;;;;;17.30;13.08;;;;;;;6.83;64.63;101007.20;1756096;81;21068;-36
2021/09/30 03:56:10;;;;;;;17.12;13.70;;;;;;;6.83;64.70;101007.20;1783299;80;21274;-36
2021/09/30 04:01:19;;;;;;;21.45;13.98;;;;;;;6.79;64.98;101008.89;1755901;81;21003;-36
2021/09/30 04:03:47;;;;;;;20.75;14.15;;;;;;;6.75;65.06;101010.03;1755657;80;21000;-36
2021/09/30 04:06:14;;;;;;;18.25;13.35;;;;;;;6.72;65.17;101006.59;1755739;80;21091;-36
2021/09/30 04:08:42;;;;;;;16.95;13.00;;;;;;;6.73;65.17;101008.74;1755671;80;21134;-36
2021/09/30 04:11:10;;;;;;;21.12;13.50;;;;;;;6.76;65.18;101011.64;1755685;80;20972;-36
2021/09/30 04:13:37;;;;;;;19.32;14.25;;;;;;;6.81;65.16;101013.45;1755687;81;20925;-36
2021/09/30 04:16:04;;;;;;;17.30;13.03;;;;;;;6.81;65.14;101014.26;1778972;79;21492;-36
2021/09/30 04:18:31;;;;;;;17.73;13.55;;;;;;;6.85;65.21;101015.81;1741394;81;21068;-36
2021/09/30 04:20:58;;;;;;;18.12;13.35;;;;;;;6.85;65.20;101015.81;1755750;81;21204;-36
2021/09/30 04:23:25;;;;;;;25.00;16.37;;;;;;;6.86;65.22;101013.37;1755750;81;21020;-36
2021/09/30 04:25:53;;;;;;;20.92;15.35;;;;;;;6.86;65.29;101011.48;1756028;81;21017;-36
2021/09/30 04:28:20;;;;;;;21.93;16.25;;;;;;;6.87;65.37;101014.98;1756643;80;21502;-36
2021/09/30 04:30:48;;;;;;;39.48;24.80;;;;;;;6.87;65.40;101011.72;1755575;80;21092;-36
2021/09/30 04:33:17;;;;;;;37.40;21.50;;;;;;;6.88;65.49;101009.82;1755286;81;21140;-36
2021/09/30 04:35:44;;;;;;;28.32;17.48;;;;;;;6.91;65.53;101013.30;1755740;81;21511;-36
2021/09/30 04:38:11;;;;;;;26.77;16.27;;;;;;;6.91;65.63;101015.45;1756361;80;21004;-36
2021/09/30 04:40:38;;;;;;;21.97;14.83;;;;;;;6.94;65.76;101011.34;1758178;81;21033;-37
2021/09/30 04:43:05;;;;;;;20.37;15.00;;;;;;;6.95;65.86;101012.95;1758221;81;21581;-37
2021/09/30 04:45:32;;;;;;;20.50;14.87;;;;;;;6.96;66.00;101017.26;1774505;80;21152;-37
2021/09/30 04:48:01;;;;;;;20.95;14.45;;;;;;;6.98;66.13;101020.44;1780818;80;21526;-37
2021/09/30 04:50:28;;;;;;;17.57;13.03;;;;;;;7.01;66.25;101023.11;1758133;81;21076;-37
2021/09/30 04:53:00;;;;;;;25.82;15.48;;;;;;;7.07;66.30;101020.02;1758085;81;20989;-37
2021/09/30 04:55:24;;;;;;;18.27;13.95;;;;;;;7.13;66.35;101022.89;1757717;81;21067;-37
2021/09/30 04:57:51;;;;;;;20.00;14.28;;;;;;;7.20;66.41;101020.63;1758728;80;21721;-37
2021/09/30 05:00:18;;;;;;;19.50;14.35;;;;;;;7.25;66.47;101023.78;1758126;81;21021;-37
2021/09/30 05:02:52;;;;;;;22.85;15.35;;;;;;;7.28;66.63;101021.28;1758337;81;20933;-37
2021/09/30 05:05:19;;;;;;;20.97;13.98;;;;;;;7.33;66.68;101014.45;1770572;80;21032;-37
2021/09/30 05:07:47;;;;;;;21.30;13.80;;;;;;;7.38;66.72;101019.75;1758234;81;21001;-37
2021/09/30 05:10:19;;;;;;;16.85;13.03;;;;;;;7.44;66.75;101017.77;1758121;81;21827;-37
2021/09/30 05:12:43;;;;;;;17.75;13.18;;;;;;;7.52;66.81;101022.47;1757885;81;20926;-37
2021/09/30 05:15:11;;;;;;;17.57;13.13;;;;;;;7.62;66.81;101020.13;1761961;80;21542;-37
2021/09/30 05:17:40;;;;;;;18.20;13.60;;;;;;;7.68;66.81;101015.69;1787958;80;20957;-37
2021/09/30 05:20:10;;;;;;;18.35;13.50;;;;;;;7.74;66.85;101023.15;1789366;80;20996;-37
2021/09/30 05:22:38;;;;;;;18.70;13.78;;;;;;;7.79;66.79;101027.09;1769681;80;21467;-37
2021/09/30 05:25:07;;;;;;;20.82;13.85;;;;;;;7.84;66.78;101024.30;1765173;79;20957;-37
2021/09/30 05:27:34;;;;;;;18.12;12.55;;;;;;;7.88;66.84;101029.89;1758133;81;21004;-37
2021/09/30 05:30:01;;;;;;;16.93;12.90;;;;;;;7.64;66.80;100986.36;1758216;81;20965;-37
2021/09/30 05:32:30;;;;;;;22.40;14.68;;;;;;;8.06;66.79;101032.48;1758847;80;21028;-37
2021/09/30 05:34:58;;;;;;;22.48;14.15;;;;;;;8.16;66.78;101026.06;1757803;81;21120;-37
2021/09/30 05:37:29;;;;;;;17.70;13.30;;;;;;;8.22;66.77;101033.77;1758452;80;20961;-37
2021/09/30 05:39:56;;;;;;;19.42;13.68;;;;;;;8.29;66.80;101033.34;1755882;81;21324;-37
2021/09/30 05:42:24;;;;;;;17.65;13.58;;;;;;;8.35;66.71;101023.25;1755848;80;21484;-37
2021/09/30 05:44:53;;;;;;;18.02;13.62;;;;;;;8.42;66.56;101031.21;1765395;80;21060;-37
2021/09/30 05:47:20;;;;;;;16.65;12.80;;;;;;;8.47;66.50;101033.00;1758207;80;21152;-37
2021/09/30 05:49:47;;;;;;;19.17;11.90;;;;;;;8.51;66.41;101037.49;1770702;80;20941;-37
2021/09/30 05:52:34;;;;;;;17.32;12.55;;;;;;;8.58;66.58;101043.27;1785841;79;21481;-37
2021/09/30 05:55:10;;;;;;;19.75;13.32;;;;;;;8.67;66.71;101044.68;1755127;80;21013;-37
2021/09/30 05:57:37;;;;;;;18.75;13.43;;;;;;;8.75;66.25;101045.88;1755767;81;21075;-37
2021/09/30 06:00:19;;;;;;;18.32;14.15;;;;;;;8.79;65.91;101044.95;1755833;81;21519;-37
2021/09/30 06:11:02;;;;;;;16.42;12.43;;;;;;;9.04;65.63;101044.36;1761602;80;21045;-36
2021/09/30 06:13:35;;;;;;;17.48;13.75;;;;;;;9.14;65.29;101046.81;1776261;80;21153;-36
2021/09/30 06:15:57;;;;;;;;;;;;;;;9.26;65.51;101049.48;1757539;81;20982;-36
2021/09/30 06:18:24;;;;;;;20.23;12.60;;;;;;;9.37;65.37;101049.48;1755756;81;20192;-36
2021/09/30 06:20:55;;;;;;;;;;;;;;;9.38;65.38;101052.44;1758313;80;21523;-36
2021/09/30 06:23:23;;;;;;;21.15;13.78;;;;;;;9.48;64.91;101050.83;1756085;80;20506;-36
2021/09/30 06:25:50;;;;;;;16.50;13.22;;;;;;;9.47;64.85;101051.94;1755871;80;21587;-37
2021/09/30 06:28:17;;;;;;;18.32;13.68;;;;;;;9.57;64.53;101051.11;1755851;80;20909;-37
2021/09/30 06:30:45;;;;;;;18.40;14.00;;;;;;;9.66;64.35;101050.34;1755848;80;20921;-37
2021/09/30 06:33:31;;;;;;;22.82;13.75;;;;;;;9.72;64.46;101051.27;1774766;79;20989;-37
2021/09/30 06:36:16;;;;;;;16.82;12.40;;;;;;;9.83;64.35;101053.91;1756097;80;21032;-37
2021/09/30 06:38:43;;;;;;;16.45;12.45;;;;;;;9.94;64.03;101045.76;1756226;81;21169;-37
2021/09/30 06:41:11;;;;;;;17.75;12.50;;;;;;;10.09;63.73;101048.59;1758041;81;21483;-37
2021/09/30 06:43:39;;;;;;;17.15;12.13;;;;;;;10.21;63.53;101052.09;1758423;81;20933;-37
2021/09/30 06:46:24;;;;;;;18.55;12.00;;;;;;;10.32;63.10;101046.59;1758541;81;20969;-37
2021/09/30 06:48:53;;;;;;;14.40;11.53;;;;;;;10.40;62.78;101049.89;1757405;81;21479;-37
2021/09/30 06:51:21;;;;;;;16.07;11.88;;;;;;;10.50;62.61;101050.15;1757463;81;21196;-37
2021/09/30 06:53:49;;;;;;;16.07;12.13;;;;;;;10.60;62.29;101054.68;1758449;80;21547;-37
2021/09/30 06:56:18;;;;;;;16.45;11.55;;;;;;;10.71;62.05;101054.61;1752390;80;21229;-37
2021/09/30 06:59:00;;;;;;;;;;;;;;;10.81;61.63;101050.78;1760757;81;20991;-37
2021/09/30 07:01:42;;;;;;;15.70;10.43;;;;;;;10.88;60.98;101051.91;1758241;81;20191;-37
2021/09/30 07:04:26;;;;;;;13.90;10.55;;;;;;;10.88;60.77;101057.34;1758362;81;21865;-37
2021/09/30 07:06:57;;;;;;;12.63;10.23;;;;;;;11.02;60.19;101057.73;1719269;80;20937;-37
2021/09/30 07:09:27;;;;;;;;;;;;;;;11.14;60.28;101055.14;1760886;81;21015;-37
2021/09/30 07:11:54;;;;;;;11.73;9.38;;;;;;;11.27;59.85;101058.26;1758310;81;21808;-37
2021/09/30 07:14:22;;;;;;;13.53;9.85;;;;;;;11.30;59.43;101059.76;1775733;80;21514;-37
2021/09/30 07:16:49;;;;;;;14.65;9.83;;;;;;;11.42;58.29;101054.23;1781764;79;21039;-37
2021/09/30 07:19:15;;;;;;;13.43;8.95;;;;;;;11.53;57.50;101058.17;1758135;81;21441;-37
2021/09/30 07:21:42;;;;;;;12.00;9.38;;;;;;;11.61;56.82;101056.81;1758079;81;21442;-37
2021/09/30 07:24:09;;;;;;;11.53;8.63;;;;;;;11.68;56.60;101059.80;1758259;81;20985;-37
2021/09/30 07:26:36;;;;;;;12.20;7.80;;;;;;;11.81;56.32;101057.25;1758921;80;21052;-37
2021/09/30 07:29:02;;;;;;;10.65;7.60;;;;;;;11.90;56.19;101057.45;1758370;81;21117;-37
2021/09/30 07:31:29;;;;;;;8.28;6.20;;;;;;;12.00;55.68;101053.00;1758382;80;21024;-37
2021/09/30 07:33:56;;;;;;;8.08;6.78;;;;;;;12.10;54.44;101059.99;1758476;80;21029;-37
2021/09/30 07:36:23;;;;;;;9.53;7.08;;;;;;;12.19;53.69;101050.66;1769497;80;21127;-37
2021/09/30 07:38:50;;;;;;;10.58;7.12;;;;;;;12.28;53.31;101051.96;1755863;80;21160;-37
2021/09/30 07:41:16;;;;;;;13.83;7.95;;;;;;;12.35;52.77;101045.98;1742199;82;21155;-37
2021/09/30 07:43:43;;;;;;;9.85;7.50;;;;;;;12.38;53.01;101050.22;1742168;82;21013;-37
2021/09/30 07:46:10;;;;;;;8.50;6.80;;;;;;;12.45;52.85;101045.03;1753380;81;21035;-37
2021/09/30 07:48:37;;;;;;;10.85;7.03;;;;;;;12.52;52.67;101049.40;1742223;82;20969;-37
2021/09/30 07:51:04;;;;;;;7.95;6.78;;;;;;;12.60;52.10;101051.25;1742138;82;21033;-37
2021/09/30 07:53:30;;;;;;;8.55;6.35;;;;;;;12.68;51.48;101039.28;1742162;81;22311;-37
2021/09/30 07:55:57;;;;;;;10.03;6.12;;;;;;;12.75;50.76;101039.53;1742179;81;21114;-37
2021/09/30 07:58:25;;;;;;;8.93;6.37;;;;;;;12.77;50.74;101044.89;1742150;82;22166;-37
2021/09/30 08:00:53;;;;;;;12.00;6.35;;;;;;;12.82;50.88;101046.61;1742377;81;20945;-37
2021/09/30 08:03:20;;;;;;;8.08;6.25;;;;;;;12.87;50.89;101053.22;1742242;82;21056;-37
2021/09/30 08:05:46;;;;;;;8.55;6.05;;;;;;;12.95;50.62;101042.80;1742401;81;21096;-37
2021/09/30 08:08:13;;;;;;;7.75;5.05;;;;;;;13.06;50.02;101043.98;1736707;82;20993;-37
2021/09/30 08:10:40;;;;;;;7.35;5.67;;;;;;;13.15;49.85;101037.13;1736009;82;21260;-37
2021/09/30 08:13:07;;;;;;;6.58;5.25;;;;;;;13.25;49.02;101041.59;1736095;82;21012;-37
2021/09/30 08:15:36;;;;;;;8.67;5.27;;;;;;;13.37;48.51;101037.52;1736398;81;21017;-37
2021/09/30 08:18:03;;;;;;;6.53;5.25;;;;;;;13.44;48.22;101038.34;1735934;82;21183;-37
2021/09/30 08:20:31;;;;;;;7.12;5.25;;;;;;;13.50;47.80;101041.08;1728540;81;21595;-37
2021/09/30 08:22:58;;;;;;;5.30;4.80;;;;;;;13.61;47.88;101043.58;1715585;83;21029;-38
2021/09/30 08:25:24;;;;;;;8.93;5.20;;;;;;;13.73;47.47;101039.52;1724701;81;21072;-37
2021/09/30 08:27:51;;;;;;;6.47;5.20;;;;;;;13.86;46.81;101046.56;1736090;82;21662;-37
2021/09/30 08:30:17;;;;;;;6.45;5.03;;;;;;;13.91;46.21;101048.27;1736106;82;21093;-37
2021/09/30 08:32:45;;;;;;;6.60;4.90;;;;;;;13.85;46.25;101046.89;1735867;82;21016;-37
2021/09/30 08:35:12;;;;;;;10.70;5.25;;;;;;;13.82;46.18;101041.56;1736182;81;21895;-37
2021/09/30 08:37:38;;;;;;;6.55;4.50;;;;;;;13.79;47.26;101043.62;1736187;82;20952;-37
2021/09/30 08:40:07;;;;;;;8.50;5.00;;;;;;;13.81;46.97;101045.42;1745500;81;21052;-38
2021/09/30 08:42:33;;;;;;;6.25;5.05;;;;;;;13.82;46.94;101040.77;1754507;81;21339;-37
2021/09/30 08:45:00;;;;;;;7.53;4.90;;;;;;;13.80;46.92;101051.20;1767188;80;20988;-38
2021/09/30 08:47:29;;;;;;;7.00;4.65;;;;;;;13.77;46.56;101049.17;1785716;80;21023;-37
2021/09/30 08:49:58;;;;;;;6.37;4.92;;;;;;;13.82;46.69;101051.67;1756086;80;21546;-38
2021/09/30 08:52:25;;;;;;;7.97;4.67;;;;;;;13.87;46.10;101046.80;1785738;80;21555;-37
2021/09/30 08:54:51;;;;;;;6.03;4.60;;;;;;;13.87;45.84;101048.16;1781293;80;21116;-38
2021/09/30 08:57:18;;;;;;;7.30;4.58;;;;;;;13.86;46.04;101041.67;1754617;81;20933;-37
2021/09/30 09:00:02;;;;;;;9.15;5.00;;;;;;;13.79;46.00;101049.07;1754653;80;21003;-37
2021/09/30 09:02:29;;;;;;;6.72;5.40;;;;;;;13.75;46.49;101052.22;1754166;80;21048;-37
2021/09/30 09:04:59;;;;;;;7.17;5.35;;;;;;;13.75;46.51;101048.70;1785763;80;21582;-37
2021/09/30 09:07:30;;;;;;;7.12;5.28;;;;;;;13.74;47.03;101051.22;1778819;79;21102;-38
2021/09/30 09:10:01;;;;;;;7.28;4.95;;;;;;;13.76;47.31;101051.09;1754556;81;20991;-37
2021/09/30 09:12:31;;;;;;;7.95;5.40;;;;;;;13.79;46.59;101046.91;1726357;81;21036;-37
2021/09/30 09:14:56;;;;;;;5.97;5.12;;;;;;;13.78;46.52;101044.75;1759199;80;21538;-38
2021/09/30 09:17:23;;;;;;;6.62;5.33;;;;;;;13.79;46.65;101047.70;1754544;80;21011;-37
2021/09/30 09:19:52;;;;;;;7.92;5.75;;;;;;;13.84;46.64;101044.76;1757275;80;21086;-37
2021/09/30 09:22:34;;;;;;;5.87;5.28;;;;;;;13.89;46.13;101045.87;1754810;80;21011;-38
2021/09/30 09:25:10;;;;;;;7.72;5.10;;;;;;;13.95;46.03;101047.80;1754946;80;20948;-37
2021/09/30 09:27:58;;;;;;;6.28;4.97;;;;;;;13.97;45.62;101040.66;1738215;81;21095;-38
2021/09/30 09:30:39;;;;;;;7.25;5.50;;;;;;;13.97;46.04;101037.37;1754594;81;21063;-38
2021/09/30 09:33:21;;;;;;;9.20;5.22;;;;;;;14.10;45.82;101041.67;1761717;80;21848;-38
2021/09/30 09:36:03;;;;;;;6.60;5.05;;;;;;;14.18;45.50;101043.50;1750903;81;21074;-37
2021/09/30 09:38:46;;;;;;;6.08;5.28;;;;;;;14.23;45.47;101041.88;1717734;82;21414;-37
2021/09/30 09:41:24;;;;;;;8.40;5.47;;;;;;;14.25;45.28;101040.98;1697347;83;21012;-37
2021/09/30 09:43:53;;;;;;;6.58;4.67;;;;;;;14.30;45.35;101053.02;1695746;84;21040;-37
2021/09/30 09:46:23;;;;;;;5.75;4.70;;;;;;;14.32;45.70;101043.94;1696099;84;21126;-37
2021/09/30 09:49:01;;;;;;;10.72;4.80;;;;;;;14.39;45.26;101045.30;1696053;83;20941;-37
2021/09/30 09:51:50;;;;;;;6.03;4.62;;;;;;;14.49;44.75;101040.73;1695883;83;21242;-37
2021/09/30 09:54:20;;;;;;;6.45;4.95;;;;;;;14.56;44.39;101044.48;1695878;84;20909;-37
2021/09/30 09:56:47;;;;;;;7.20;5.30;;;;;;;14.57;44.43;101043.33;1695874;84;21032;-37
2021/09/30 09:59:29;;;;;;;7.95;5.35;;;;;;;14.57;44.04;101044.69;1695923;84;21238;-37
2021/09/30 10:01:57;;;;;;;5.95;4.55;;;;;;;14.58;43.99;101046.85;1696305;83;20960;-37
2021/09/30 10:04:25;;;;;;;8.95;5.08;;;;;;;14.65;43.90;101044.34;1696220;84;20972;-37
2021/09/30 10:06:53;;;;;;;;;;;;;;;14.72;44.36;101048.06;1667870;84;21020;-37
2021/09/30 10:09:20;;;;;;;5.95;5.22;;;;;;;14.81;44.49;101047.14;1696010;84;20506;-37
2021/09/30 10:11:49;;;;;;;6.67;5.50;;;;;;;14.77;44.16;101050.55;1696072;83;21586;-37
2021/09/30 10:14:15;;;;;;;8.10;5.10;;;;;;;14.78;43.84;101045.32;1695988;84;20933;-37
2021/09/30 10:16:47;;;;;;;8.13;5.50;;;;;;;14.82;43.78;101044.61;1720702;83;21019;-37
2021/09/30 10:19:10;;;;;;;7.28;5.42;;;;;;;14.83;43.90;101044.84;1724184;83;20964;-37
2021/09/30 10:21:39;;;;;;;7.00;5.37;;;;;;;14.83;43.80;101047.01;1701637;83;21577;-37
2021/09/30 10:24:16;;;;;;;8.03;5.60;;;;;;;14.81;43.78;101042.48;1708598;83;21219;-37
2021/09/30 10:26:52;;;;;;;8.23;5.40;;;;;;;14.82;43.71;101035.86;1705134;83;21038;-37
2021/09/30 10:29:48;;;;;;;7.92;5.35;;;;;;;14.84;44.09;101036.31;1724047;83;20974;-37
2021/09/30 10:32:17;;;;;;;6.65;5.33;;;;;;;14.86;44.72;101040.87;1710997;83;20972;-37
2021/09/30 10:34:50;;;;;;;;;;;;;;;14.94;44.75;101035.83;1698664;84;21019;-37
2021/09/30 10:37:36;;;;;;;8.05;5.78;;;;;;;15.01;43.95;101036.01;1672446;84;21097;-37
2021/09/30 10:40:23;;;;;;;8.85;5.40;;;;;;;14.97;43.87;101040.58;1763280;80;20930;-37
2021/09/30 10:42:57;;;;;;;6.70;4.97;;;;;;;14.99;43.73;101035.58;1756686;81;21099;-37
2021/09/30 10:45:38;;;;;;;7.72;5.92;;;;;;;15.08;44.01;101033.48;1736398;81;21681;-37
2021/09/30 10:48:30;;;;;;;6.40;5.50;;;;;;;15.27;44.01;101028.72;1736205;82;21603;-37
2021/09/30 10:51:00;;;;;;;6.85;5.45;;;;;;;15.56;43.84;101031.64;1736117;82;21124;-37
2021/09/30 10:53:52;;;;;;;7.47;5.55;;;;;;;15.95;43.01;101035.34;1736148;82;21547;-38
2021/09/30 10:56:41;;;;;;;8.03;5.30;;;;;;;16.19;42.32;101037.06;1736202;81;21049;-37
2021/09/30 10:59:19;;;;;;;8.65;5.35;;;;;;;16.39;41.71;101034.59;1736127;82;21044;-37
2021/09/30 11:01:56;;;;;;;5.83;5.22;;;;;;;16.66;41.31;101032.27;1735600;82;21530;-37
2021/09/30 11:04:23;;;;;;;7.05;5.12;;;;;;;16.95;40.22;101031.69;1736441;81;21094;-37
2021/09/30 11:07:15;;;;;;;7.95;5.12;;;;;;;17.14;39.51;101025.97;1735926;82;20985;-37
2021/09/30 11:09:44;;;;;;;6.90;5.17;;;;;;;17.21;39.42;101020.05;1735839;82;20980;-37
2021/09/30 11:12:13;;;;;;;6.35;5.08;;;;;;;17.37;39.17;101021.33;1712182;81;21080;-37
2021/09/30 11:14:55;;;;;;;7.72;5.28;;;;;;;17.51;38.68;101017.45;1736876;81;20938;-37
2021/09/30 11:17:40;;;;;;;5.95;5.05;;;;;;;17.53;38.39;101012.38;1766518;81;21931;-37
2021/09/30 11:20:36;;;;;;;6.80;5.25;;;;;;;17.41;38.13;101013.95;1766491;81;21036;-37
2021/09/30 11:23:05;;;;;;;6.28;4.97;;;;;;;17.22;38.75;101009.89;1765703;81;20945;-37
2021/09/30 11:26:06;;;;;;;6.62;5.37;;;;;;;17.01;39.26;101006.73;1766406;81;21004;-37
2021/09/30 11:28:33;;;;;;;9.40;5.43;;;;;;;16.85;39.09;101013.09;1766740;81;20969;-37
2021/09/30 11:31:26;;;;;;;6.30;4.95;;;;;;;16.59;39.56;101009.43;1760502;81;21173;-37
2021/09/30 11:33:58;;;;;;;6.28;5.08;;;;;;;16.44;40.06;101009.67;1736001;82;20957;-37
2021/09/30 11:36:35;;;;;;;8.98;5.20;;;;;;;16.35;40.23;101004.98;1736131;82;21053;-37
2021/09/30 11:39:03;;;;;;;6.87;5.53;;;;;;;16.34;40.19;101003.39;1736063;82;20980;-37
2021/09/30 11:41:31;;;;;;;6.65;5.08;;;;;;;16.41;40.21;101004.93;1747238;80;21044;-37
2021/09/30 11:43:58;;;;;;;6.62;5.25;;;;;;;16.55;40.30;101000.33;1752287;81;21100;-37
2021/09/30 11:46:32;;;;;;;5.70;4.35;;;;;;;16.77;40.28;100991.41;1752184;81;20909;-37
2021/09/30 11:49:01;;;;;;;7.22;5.17;;;;;;;17.06;39.84;100998.22;1752303;80;21060;-37
2021/09/30 11:51:35;;;;;;;6.70;5.03;;;;;;;17.23;39.81;101004.02;1753103;80;21068;-37
2021/09/30 11:54:02;;;;;;;7.40;4.95;;;;;;;17.35;39.47;100997.58;1752582;80;21074;-37
2021/09/30 11:56:28;;;;;;;9.13;5.35;;;;;;;17.37;39.27;100989.80;1752279;81;21190;-37
2021/09/30 11:59:02;;;;;;;5.90;5.08;;;;;;;17.42;38.88;100988.12;1752231;81;21079;-37
2021/09/30 12:01:40;;;;;;;8.95;5.55;;;;;;;17.37;39.38;100990.59;1752679;80;21072;-37
2021/09/30 12:04:07;;;;;;;7.97;5.60;;;;;;;17.28;39.53;100989.25;1752151;81;21051;-37
2021/09/30 12:06:44;;;;;;;7.83;5.72;;;;;;;17.17;39.53;100983.58;1722741;81;21012;-37
2021/09/30 12:09:14;;;;;;;9.78;5.85;;;;;;;17.18;39.45;100983.00;1752184;81;21091;-37
2021/09/30 12:11:55;;;;;;;8.13;5.62;;;;;;;17.25;39.01;100981.73;1752282;80;21588;-37
2021/09/30 12:14:23;;;;;;;8.23;5.47;;;;;;;17.40;38.94;100975.34;1752490;80;20941;-37
2021/09/30 12:17:00;;;;;;;8.30;5.40;;;;;;;17.78;38.54;100973.84;1749993;80;21004;-37
2021/09/30 12:19:36;;;;;;;9.05;5.65;;;;;;;18.14;37.78;100973.00;1783276;80;21040;-37
2021/09/30 12:22:18;;;;;;;6.80;5.42;;;;;;;18.44;37.32;100962.81;1782240;80;21502;-38
2021/09/30 12:24:55;;;;;;;7.08;4.90;;;;;;;18.88;37.39;100964.92;1783127;79;21003;-38
2021/09/30 12:27:25;;;;;;;7.10;5.05;;;;;;;19.41;36.77;100967.57;1771615;80;21048;-38
2021/09/30 12:29:53;;;;;;;5.62;5.03;;;;;;;20.01;35.02;100965.89;1714634;83;21666;-38
2021/09/30 12:32:28;;;;;;;8.23;5.15;;;;;;;20.60;34.67;100962.47;1730465;82;21783;-38
2021/09/30 12:34:56;;;;;;;6.20;4.85;;;;;;;21.11;33.60;100959.44;1779526;80;21115;-38
2021/09/30 12:37:29;;;;;;;5.67;5.08;;;;;;;21.55;33.11;100954.37;1774864;80;21027;-38
2021/09/30 12:40:05;;;;;;;8.10;5.20;;;;;;;22.06;32.42;100947.03;1757162;81;21628;-38
2021/09/30 12:42:32;;;;;;;9.58;5.12;;;;;;;22.63;31.47;100950.95;1782331;80;21036;-38
2021/09/30 12:44:59;;;;;;;7.62;5.10;;;;;;;23.02;30.61;100950.76;1787161;80;21015;-38
2021/09/30 12:47:38;;;;;;;6.47;5.05;;;;;;;23.31;30.32;100947.98;1780543;80;21117;-38
2021/09/30 12:50:09;;;;;;;7.08;5.40;;;;;;;23.62;29.08;100940.63;1763117;80;21463;-38
2021/09/30 12:52:37;;;;;;;7.53;4.92;;;;;;;23.72;28.97;100942.48;1771877;80;20972;-38
2021/09/30 12:55:25;;;;;;;6.33;4.65;;;;;;;23.96;28.57;100944.05;1714550;82;21095;-38
2021/09/30 12:57:51;;;;;;;9.83;4.87;;;;;;;24.15;28.50;100940.67;1776905;80;21102;-38
2021/09/30 13:00:19;;;;;;;6.22;4.83;;;;;;;24.36;28.01;100934.89;1740286;82;21132;-38
2021/09/30 13:02:48;;;;;;;8.13;5.12;;;;;;;24.45;27.44;100926.84;1728078;82;21043;-38
2021/09/30 13:05:15;;;;;;;7.10;4.92;;;;;;;24.42;27.72;100929.08;1713163;81;21023;-38
2021/09/30 13:07:56;;;;;;;7.20;4.20;;;;;;;24.51;27.90;100929.34;1758991;80;20984;-38
2021/09/30 13:10:34;;;;;;;5.97;4.50;;;;;;;24.77;27.52;100931.19;1774742;80;21098;-38
2021/09/30 13:13:08;;;;;;;8.70;4.70;;;;;;;25.14;26.72;100921.33;1781267;80;21166;-38
2021/09/30 13:15:41;;;;;;;5.25;4.53;;;;;;;25.39;26.46;100916.76;1770729;80;21759;-38
2021/09/30 13:18:12;;;;;;;5.28;4.50;;;;;;;25.56;26.21;100905.99;1779006;80;21051;-38
2021/09/30 13:20:39;;;;;;;8.58;4.87;;;;;;;25.63;26.26;100903.06;1773271;80;21091;-38
2021/09/30 13:23:06;;;;;;;10.13;5.47;;;;;;;25.93;25.87;100907.06;1770063;80;21087;-38
2021/09/30 13:25:33;;;;;;;8.33;4.53;;;;;;;26.25;25.38;100902.27;1762730;80;21609;-38
2021/09/30 13:28:02;;;;;;;7.47;5.15;;;;;;;26.49;25.06;100902.95;1763121;80;21071;-38
2021/09/30 13:30:35;;;;;;;8.25;5.15;;;;;;;26.59;24.65;100902.53;1765532;80;20975;-38
2021/09/30 13:33:03;;;;;;;7.30;5.28;;;;;;;26.60;24.50;100899.94;1769712;80;21118;-38
2021/09/30 13:35:34;;;;;;;6.27;5.23;;;;;;;26.51;24.47;100903.91;1770909;80;20980;-38
2021/09/30 13:38:01;;;;;;;8.30;5.47;;;;;;;26.34;24.60;100901.68;1786928;80;21754;-39
2021/09/30 13:40:28;;;;;;;6.75;5.60;;;;;;;26.31;24.89;100901.16;1783915;80;20979;-38
2021/09/30 13:42:54;;;;;;;6.60;5.30;;;;;;;26.27;24.68;100900.45;1763611;80;21035;-38
2021/09/30 13:45:22;;;;;;;8.13;5.15;;;;;;;26.13;24.88;100897.34;1746710;80;21629;-38
2021/09/30 13:47:49;;;;;;;7.78;5.42;;;;;;;26.18;25.17;100884.33;1748154;80;21064;-38
2021/09/30 13:50:19;;;;;;;6.30;5.42;;;;;;;26.32;24.82;100886.05;1777055;80;21890;-38
2021/09/30 13:52:51;;;;;;;8.28;4.83;;;;;;;26.49;24.34;100881.30;1775978;80;20924;-38
2021/09/30 13:56:15;;;;;;;5.97;4.92;;;;;;;26.71;23.90;100876.23;1794759;79;22540;-38
2021/09/30 13:58:41;;;;;;;6.17;4.90;;;;;;;26.70;23.79;100879.44;1756519;81;20949;-38
2021/09/30 14:01:08;;;;;;;9.85;5.42;;;;;;;26.74;23.68;100877.35;1751254;80;21123;-38
2021/09/30 14:03:35;;;;;;;6.62;5.08;;;;;;;26.87;23.75;100875.47;1753272;81;21484;-38
2021/09/30 14:06:02;;;;;;;6.42;5.15;;;;;;;27.11;23.71;100871.94;1746456;81;20950;-38
2021/09/30 14:08:31;;;;;;;6.53;4.87;;;;;;;27.29;23.35;100865.91;1752265;81;20969;-38
2021/09/30 14:11:00;;;;;;;6.03;4.85;;;;;;;27.50;23.13;100865.35;1756186;80;21004;-38
2021/09/30 14:13:26;;;;;;;8.98;5.10;;;;;;;27.73;22.84;100867.93;1756614;81;21135;-38
2021/09/30 14:15:53;;;;;;;8.70;5.33;;;;;;;27.97;22.50;100872.02;1770717;80;20930;-38
2021/09/30 14:18:21;;;;;;;8.28;5.28;;;;;;;28.10;22.20;100868.64;1756605;80;20974;-38
2021/09/30 14:20:48;;;;;;;6.87;5.47;;;;;;;28.20;22.07;100874.37;1758865;80;20949;-39